createdAt,value
2022-12-25T00:00:27.933Z,100812.13
2022-12-25T00:03:31.223Z,100808.50
2022-12-25T00:06:33.996Z,100804.06
2022-12-25T00:09:36.677Z,100808.84
2022-12-25T00:12:39.493Z,100799.69
2022-12-25T00:15:42.182Z,100804.56
2022-12-25T00:18:45.766Z,100802.75
2022-12-25T00:21:48.244Z,100800.72
2022-12-25T00:24:51.193Z,100812.78
2022-12-25T00:27:53.552Z,100814.59
2022-12-25T00:30:56.529Z,100822.06
2022-12-25T00:33:59.234Z,100847.09
2022-12-25T00:37:01.962Z,100858.84
2022-12-25T00:40:04.928Z,100851.41
2022-12-25T00:43:07.633Z,100880.59
2022-12-25T00:46:13.214Z,100877.53
2022-12-25T00:49:16.394Z,100884.56
2022-12-25T00:52:19.158Z,100888.00
2022-12-25T00:55:22.194Z,100885.31
2022-12-25T00:58:26.637Z,100897.44
2022-12-25T01:01:29.809Z,100885.31
2022-12-25T01:04:32.881Z,100881.94
2022-12-25T01:07:35.720Z,100878.69
2022-12-25T01:10:38.468Z,100876.06
2022-12-25T01:13:41.244Z,100886.97
2022-12-25T01:16:44.005Z,100885.94
2022-12-25T01:19:47.261Z,100894.16
2022-12-25T01:22:49.671Z,100896.56
2022-12-25T01:25:52.688Z,100874.25
2022-12-25T01:28:55.153Z,100878.25
2022-12-25T01:31:57.897Z,100887.44
2022-12-25T01:35:00.508Z,100894.38
2022-12-25T01:38:03.188Z,100882.75
2022-12-25T01:41:06.241Z,100888.78
2022-12-25T01:44:14.882Z,100884.28
2022-12-25T01:47:18.446Z,100883.56
2022-12-25T01:50:22.609Z,100897.72
2022-12-25T01:53:26.789Z,100892.91
2022-12-25T01:56:30.449Z,100886.75
2022-12-25T01:59:33.304Z,100887.78
2022-12-25T02:02:37.251Z,100888.06
2022-12-25T02:05:40.327Z,100888.47
2022-12-25T02:08:43.865Z,100898.72
2022-12-25T02:11:58.979Z,100889.44
2022-12-25T02:15:08.385Z,100882.19
2022-12-25T02:18:53.589Z,100885.16
2022-12-25T02:22:15.236Z,100887.84
2022-12-25T02:25:46.726Z,100892.47
2022-12-25T02:29:03.230Z,100905.63
2022-12-25T02:32:42.500Z,100894.75
2022-12-25T02:35:49.946Z,100899.31
2022-12-25T02:39:15.644Z,100896.03
2022-12-25T02:42:48.682Z,100904.41
2022-12-25T02:46:17.038Z,100924.66
2022-12-25T02:49:43.262Z,100927.13
2022-12-25T02:53:06.064Z,100937.72
2022-12-25T02:56:28.042Z,100938.81
2022-12-25T02:59:51.853Z,100941.84
2022-12-25T03:03:14.268Z,100948.25
2022-12-25T03:06:38.107Z,100959.34
2022-12-25T03:10:05.213Z,100943.41
2022-12-25T03:13:20.008Z,100942.63
2022-12-25T03:16:41.772Z,100940.81
2022-12-25T03:20:03.270Z,100940.81
2022-12-25T03:23:25.940Z,100947.41
2022-12-25T03:26:47.938Z,100955.38
2022-12-25T03:30:09.099Z,100962.06
2022-12-25T03:33:43.350Z,100963.69
2022-12-25T03:36:46.805Z,100974.84
2022-12-25T03:40:23.432Z,100960.41
2022-12-25T03:44:05.743Z,100963.38
2022-12-25T03:47:33.257Z,100969.47
2022-12-25T03:51:06.231Z,100959.00
2022-12-25T03:54:29.555Z,100952.63
2022-12-25T03:57:53.610Z,100954.97
2022-12-25T04:01:15.299Z,100954.16
2022-12-25T04:04:36.325Z,100951.16
2022-12-25T04:07:58.123Z,100961.19
2022-12-25T04:11:19.244Z,100967.59
2022-12-25T04:14:40.855Z,100970.06
2022-12-25T04:18:02.237Z,100971.00
2022-12-25T04:21:23.565Z,100970.81
2022-12-25T04:24:44.984Z,100970.25
2022-12-25T04:28:05.907Z,100980.38
2022-12-25T04:31:27.122Z,100989.03
2022-12-25T04:34:48.449Z,100980.53
2022-12-25T04:37:51.341Z,100983.78
2022-12-25T04:40:54.332Z,100988.00
2022-12-25T04:43:56.813Z,100980.72
2022-12-25T04:46:59.821Z,100980.38
2022-12-25T04:50:02.572Z,100973.56
2022-12-25T04:53:05.309Z,100983.78
2022-12-25T04:56:08.187Z,100987.66
2022-12-25T04:59:12.247Z,100990.25
2022-12-25T05:02:15.174Z,100987.88
2022-12-25T05:05:18.081Z,100992.63
2022-12-25T05:08:20.787Z,100999.72
2022-12-25T05:11:23.546Z,101004.97
2022-12-25T05:14:25.967Z,101004.53
2022-12-25T05:17:29.184Z,101006.94
2022-12-25T05:20:38.011Z,101014.97
2022-12-25T05:23:48.876Z,101016.19
2022-12-25T05:26:51.770Z,101000.53
2022-12-25T05:29:54.533Z,101013.75
2022-12-25T05:32:57.294Z,101020.63
2022-12-25T05:36:04.742Z,101023.03
2022-12-25T05:39:07.592Z,101026.06
2022-12-25T05:42:10.625Z,101034.47
2022-12-25T05:45:13.205Z,101040.50
2022-12-25T05:48:16.824Z,101048.75
2022-12-25T05:51:19.622Z,101038.53
2022-12-25T05:54:22.344Z,101034.72
2022-12-25T05:57:25.184Z,101036.69
2022-12-25T06:00:28.742Z,101043.56
2022-12-25T06:03:31.584Z,101057.00
2022-12-25T06:06:34.758Z,101062.41
2022-12-25T06:09:37.253Z,101068.63
2022-12-25T06:12:40.132Z,101077.25
2022-12-25T06:15:42.587Z,101076.84
2022-12-25T06:18:48.241Z,101077.25
2022-12-25T06:21:54.495Z,101071.63
2022-12-25T06:24:57.695Z,101086.28
2022-12-25T06:28:00.510Z,101090.91
2022-12-25T06:31:12.233Z,101082.88
2022-12-25T06:34:16.589Z,101090.28
2022-12-25T06:37:20.136Z,101091.66
2022-12-25T06:40:22.901Z,101106.28
2022-12-25T06:43:25.511Z,101105.69
2022-12-25T06:46:29.909Z,101115.13
2022-12-25T06:49:32.944Z,101103.00
2022-12-25T06:52:35.658Z,101108.00
2022-12-25T06:55:38.206Z,101123.06
2022-12-25T06:58:42.943Z,101129.41
2022-12-25T07:01:56.498Z,101129.19
2022-12-25T07:05:00.065Z,101139.16
2022-12-25T07:08:02.718Z,101140.00
2022-12-25T07:11:05.603Z,101143.47
2022-12-25T07:14:08.120Z,101151.41
2022-12-25T07:17:10.867Z,101157.28
2022-12-25T07:20:13.649Z,101163.09
2022-12-25T07:23:16.311Z,101166.25
2022-12-25T07:26:19.474Z,101180.09
2022-12-25T07:29:22.098Z,101181.47
2022-12-25T07:32:24.780Z,101186.88
2022-12-25T07:35:27.389Z,101198.72
2022-12-25T07:38:30.613Z,101184.41
2022-12-25T07:41:34.046Z,101174.69
2022-12-25T07:44:53.882Z,101181.78
2022-12-25T07:47:59.891Z,101199.50
2022-12-25T07:51:08.622Z,101209.38
2022-12-25T07:54:11.184Z,101197.28
2022-12-25T07:57:13.882Z,101199.28
2022-12-25T08:00:16.999Z,101224.91
2022-12-25T08:03:20.652Z,101220.25
2022-12-25T08:06:29.524Z,101219.72
2022-12-25T08:09:32.729Z,101223.28
2022-12-25T08:12:35.191Z,101231.47
2022-12-25T08:15:37.985Z,101233.47
2022-12-25T08:18:40.695Z,101234.13
2022-12-25T08:21:43.388Z,101240.94
2022-12-25T08:24:45.884Z,101248.88
2022-12-25T08:27:48.560Z,101244.78
2022-12-25T08:30:51.435Z,101242.50
2022-12-25T08:33:56.974Z,101238.47
2022-12-25T08:36:59.661Z,101250.31
2022-12-25T08:40:02.878Z,101262.63
2022-12-25T08:43:05.784Z,101250.63
2022-12-25T08:46:09.002Z,101251.09
2022-12-25T08:49:11.547Z,101254.34
2022-12-25T08:52:14.622Z,101257.25
2022-12-25T08:55:17.749Z,101258.59
2022-12-25T08:58:20.266Z,101251.66
2022-12-25T09:01:23.048Z,101242.72
2022-12-25T09:04:26.058Z,101254.50
2022-12-25T09:07:28.644Z,101258.63
2022-12-25T09:10:31.817Z,101247.34
2022-12-25T09:13:34.962Z,101257.41
2022-12-25T09:16:37.665Z,101253.00
2022-12-25T09:19:40.291Z,101256.34
2022-12-25T09:22:43.210Z,101253.47
2022-12-25T09:25:46.163Z,101251.63
2022-12-25T09:28:52.384Z,101245.56
2022-12-25T09:31:55.537Z,101257.81
2022-12-25T09:34:58.525Z,101252.81
2022-12-25T09:38:01.228Z,101250.09
2022-12-25T09:41:25.349Z,101264.53
2022-12-25T09:44:34.837Z,101270.16
2022-12-25T09:47:40.217Z,101270.63
2022-12-25T09:50:48.715Z,101284.00
2022-12-25T09:54:01.227Z,101276.53
2022-12-25T09:57:04.058Z,101281.59
2022-12-25T10:00:17.943Z,101283.72
2022-12-25T10:03:44.343Z,101283.53
2022-12-25T10:07:04.329Z,101287.91
2022-12-25T10:10:33.165Z,101298.31
2022-12-25T10:13:45.155Z,101302.41
2022-12-25T10:16:53.474Z,101295.88
2022-12-25T10:20:13.070Z,101285.78
2022-12-25T10:23:29.542Z,101284.09
2022-12-25T10:26:34.493Z,101287.16
2022-12-25T10:29:38.619Z,101290.25
2022-12-25T10:32:41.239Z,101291.66
2022-12-25T10:35:44.509Z,101276.38
2022-12-25T10:38:48.157Z,101270.53
2022-12-25T10:42:04.508Z,101279.44
2022-12-25T10:45:09.613Z,101278.34
2022-12-25T10:48:20.757Z,101282.19
2022-12-25T10:51:41.166Z,101274.44
2022-12-25T10:54:43.719Z,101272.22
2022-12-25T10:57:47.164Z,101275.38
2022-12-25T11:01:01.290Z,101264.75
2022-12-25T11:04:03.878Z,101271.72
2022-12-25T11:07:14.681Z,101274.88
2022-12-25T11:10:25.353Z,101287.13
2022-12-25T11:13:29.901Z,101280.94
2022-12-25T11:16:40.425Z,101280.38
2022-12-25T11:19:52.453Z,101288.59
2022-12-25T11:22:55.468Z,101289.78
2022-12-25T11:26:07.177Z,101281.25
2022-12-25T11:29:21.953Z,101285.69
2022-12-25T11:32:42.592Z,101280.31
2022-12-25T11:35:53.189Z,101285.63
2022-12-25T11:38:57.130Z,101280.81
2022-12-25T11:42:06.060Z,101284.69
2022-12-25T11:45:16.866Z,101286.56
2022-12-25T11:48:44.422Z,101289.88
2022-12-25T11:51:50.581Z,101290.38
2022-12-25T11:55:04.209Z,101291.09
2022-12-25T11:58:18.218Z,101283.06
2022-12-25T12:01:37.325Z,101275.91
2022-12-25T12:04:44.903Z,101278.72
2022-12-25T12:07:57.148Z,101282.59
2022-12-25T12:11:16.126Z,101282.69
2022-12-25T12:14:51.142Z,101291.50
2022-12-25T12:17:53.731Z,101287.16
2022-12-25T12:21:18.425Z,101284.69
2022-12-25T12:24:22.811Z,101280.91
2022-12-25T12:27:39.625Z,101277.94
2022-12-25T12:30:42.196Z,101278.38
2022-12-25T12:33:59.911Z,101280.59
2022-12-25T12:37:11.316Z,101269.31
2022-12-25T12:40:33.289Z,101270.47
2022-12-25T12:43:43.033Z,101273.28
2022-12-25T12:46:57.547Z,101275.72
2022-12-25T12:50:01.607Z,101269.44
2022-12-25T12:53:24.604Z,101271.81
2022-12-25T12:56:27.256Z,101272.09
2022-12-25T12:59:43.878Z,101260.78
2022-12-25T13:02:58.710Z,101269.25
2022-12-25T13:06:14.978Z,101268.06
2022-12-25T13:09:35.397Z,101272.22
2022-12-25T13:12:38.426Z,101280.03
2022-12-25T13:15:41.199Z,101280.25
2022-12-25T13:18:44.150Z,101281.03
2022-12-25T13:21:56.605Z,101285.84
2022-12-25T13:25:05.500Z,101284.59
2022-12-25T13:28:14.175Z,101292.75
2022-12-25T13:31:22.147Z,101296.25
2022-12-25T13:34:31.811Z,101286.09
2022-12-25T13:37:35.360Z,101278.25
2022-12-25T13:40:38.090Z,101285.72
2022-12-25T13:43:43.606Z,101281.78
2022-12-25T13:46:46.522Z,101274.09
2022-12-25T13:49:52.335Z,101264.38
2022-12-25T13:52:57.514Z,101256.88
2022-12-25T13:56:00.564Z,101261.88
2022-12-25T13:59:03.808Z,101258.00
2022-12-25T14:02:19.166Z,101265.25
2022-12-25T14:05:42.387Z,101287.47
2022-12-25T14:08:47.320Z,101288.94
2022-12-25T14:11:52.433Z,101287.03
2022-12-25T14:14:55.748Z,101296.22
2022-12-25T14:17:58.852Z,101302.66
2022-12-25T14:21:02.865Z,101302.66
2022-12-25T14:24:13.687Z,101313.31
2022-12-25T14:27:26.699Z,101330.75
2022-12-25T14:30:29.804Z,101337.75
2022-12-25T14:33:39.334Z,101354.63
2022-12-25T14:36:42.460Z,101370.25
2022-12-25T14:39:47.710Z,101369.78
2022-12-25T14:43:19.971Z,101359.34
2022-12-25T14:46:28.557Z,101358.06
2022-12-25T14:49:32.628Z,101355.91
2022-12-25T14:55:52.234Z,101354.66
2022-12-25T14:58:59.174Z,101351.84
2022-12-25T15:02:01.806Z,101347.75
2022-12-25T15:05:05.360Z,101355.72
2022-12-25T15:08:13.746Z,101358.75
2022-12-25T15:11:16.615Z,101356.97
2022-12-25T15:14:20.056Z,101374.44
2022-12-25T15:17:28.080Z,101385.31
2022-12-25T15:20:32.620Z,101382.56
2022-12-25T15:23:35.482Z,101380.91
2022-12-25T15:26:38.461Z,101386.88
2022-12-25T15:30:11.296Z,101399.34
2022-12-25T15:33:03.594Z,101379.00
2022-12-25T15:36:06.873Z,101388.97
2022-12-25T15:39:10.333Z,101391.66
2022-12-25T15:42:15.069Z,101388.44
2022-12-25T15:45:22.433Z,101378.38
2022-12-25T15:48:24.964Z,101362.72
2022-12-25T15:51:27.908Z,101353.91
2022-12-25T15:54:32.540Z,101348.34
2022-12-25T15:57:35.495Z,101343.41
2022-12-25T16:00:38.376Z,101339.75
2022-12-25T16:03:41.646Z,101325.00
2022-12-25T16:06:44.633Z,101330.84
2022-12-25T16:09:47.217Z,101343.63
2022-12-25T16:12:50.018Z,101368.22
2022-12-25T16:15:53.430Z,101367.31
2022-12-25T16:18:56.251Z,101384.22
2022-12-25T16:21:59.031Z,101387.97
2022-12-25T16:25:01.805Z,101376.97
2022-12-25T16:28:06.174Z,101381.44
2022-12-25T16:31:09.174Z,101366.69
2022-12-25T16:34:11.681Z,101357.19
2022-12-25T16:37:14.557Z,101355.94
2022-12-25T16:40:18.072Z,101356.72
2022-12-25T16:43:24.120Z,101363.81
2022-12-25T16:46:27.383Z,101369.97
2022-12-25T16:49:29.995Z,101358.66
2022-12-25T16:52:34.685Z,101363.16
2022-12-25T16:55:40.257Z,101358.56
2022-12-25T16:58:44.296Z,101358.81
2022-12-25T17:01:47.533Z,101365.31
2022-12-25T17:04:50.357Z,101364.84
2022-12-25T17:07:53.582Z,101358.00
2022-12-25T17:10:56.023Z,101362.38
2022-12-25T17:14:03.962Z,101362.94
2022-12-25T17:17:07.046Z,101368.53
2022-12-25T17:20:10.342Z,101365.66
2022-12-25T17:23:13.151Z,101374.13
2022-12-25T17:26:15.947Z,101378.81
2022-12-25T17:29:22.328Z,101378.72
2022-12-25T17:32:25.944Z,101380.41
2022-12-25T17:35:28.260Z,101388.69
2022-12-25T17:38:32.391Z,101383.72
2022-12-25T17:41:36.100Z,101383.38
2022-12-25T17:44:39.032Z,101389.00
2022-12-25T17:47:41.634Z,101388.06
2022-12-25T17:50:44.767Z,101390.94
2022-12-25T17:53:50.561Z,101385.34
2022-12-25T17:56:53.603Z,101382.59
2022-12-25T17:59:56.485Z,101375.53
2022-12-25T18:03:05.753Z,101365.91
2022-12-25T18:06:16.115Z,101365.56
2022-12-25T18:09:20.160Z,101371.66
2022-12-25T18:12:22.762Z,101374.84
2022-12-25T18:15:25.828Z,101371.63
2022-12-25T18:18:29.413Z,101378.16
2022-12-25T18:21:32.161Z,101378.50
2022-12-25T18:24:34.692Z,101377.47
2022-12-25T18:27:37.493Z,101369.00
2022-12-25T18:30:42.258Z,101369.69
2022-12-25T18:33:46.306Z,101356.31
2022-12-25T18:36:49.116Z,101352.53
2022-12-25T18:39:52.023Z,101337.47
2022-12-25T18:43:01.064Z,101337.13
2022-12-25T18:46:06.836Z,101347.16
2022-12-25T18:49:11.054Z,101343.16
2022-12-25T18:52:49.351Z,101372.84
2022-12-25T18:55:36.502Z,101370.13
2022-12-25T18:58:39.831Z,101345.31
2022-12-25T19:01:42.693Z,101357.13
2022-12-25T19:04:45.835Z,101362.38
2022-12-25T19:07:48.287Z,101356.44
2022-12-25T19:10:51.482Z,101345.00
2022-12-25T19:13:53.941Z,101352.31
2022-12-25T19:16:57.195Z,101351.06
2022-12-25T19:20:00.604Z,101342.72
2022-12-25T19:23:04.027Z,101348.34
2022-12-25T19:26:09.042Z,101354.03
2022-12-25T19:29:12.139Z,101355.75
2022-12-25T19:32:14.775Z,101357.38
2022-12-25T19:35:18.050Z,101362.06
2022-12-25T19:38:21.442Z,101361.03
2022-12-25T19:41:24.282Z,101353.59
2022-12-25T19:44:27.096Z,101341.56
2022-12-25T19:47:29.893Z,101337.81
2022-12-25T19:50:33.045Z,101336.91
2022-12-25T19:53:35.790Z,101330.25
2022-12-25T19:56:38.464Z,101323.53
2022-12-25T19:59:41.529Z,101323.66
2022-12-25T20:02:44.112Z,101318.38
2022-12-25T20:05:47.161Z,101323.75
2022-12-25T20:08:52.689Z,101322.75
2022-12-25T20:11:55.863Z,101342.84
2022-12-25T20:14:58.338Z,101334.19
2022-12-25T20:18:03.062Z,101345.13
2022-12-25T20:21:10.392Z,101357.47
2022-12-25T20:24:13.261Z,101351.66
2022-12-25T20:27:15.962Z,101363.63
2022-12-25T20:30:18.958Z,101354.41
2022-12-25T20:33:22.366Z,101353.25
2022-12-25T20:36:28.540Z,101362.03
2022-12-25T20:39:35.286Z,101361.59
2022-12-25T20:42:38.920Z,101359.50
2022-12-25T20:45:42.101Z,101356.53
2022-12-25T20:48:45.163Z,101363.03
2022-12-25T20:51:48.620Z,101367.72
2022-12-25T20:54:51.498Z,101371.50
2022-12-25T20:57:54.148Z,101371.66
2022-12-25T21:00:57.437Z,101379.84
2022-12-25T21:04:00.278Z,101364.34
2022-12-25T21:07:03.572Z,101365.56
2022-12-25T21:10:06.789Z,101352.53
2022-12-25T21:13:10.080Z,101341.47
2022-12-25T21:16:19.008Z,101350.03
2022-12-25T21:19:21.741Z,101361.34
2022-12-25T21:22:24.819Z,101367.84
2022-12-25T21:25:27.909Z,101370.81
2022-12-25T21:28:32.347Z,101372.53
2022-12-25T21:31:55.130Z,101364.09
2022-12-25T21:34:58.060Z,101355.84
2022-12-25T21:38:00.623Z,101356.88
2022-12-25T21:41:08.744Z,101347.72
2022-12-25T21:44:11.835Z,101345.31
2022-12-25T21:47:14.457Z,101351.38
2022-12-25T21:50:39.255Z,101373.91
2022-12-25T21:53:42.238Z,101377.78
2022-12-25T21:56:47.590Z,101370.34
2022-12-25T21:59:50.206Z,101369.25
2022-12-25T22:02:53.435Z,101347.41
2022-12-25T22:06:21.469Z,101348.22
2022-12-25T22:09:24.893Z,101343.31
2022-12-25T22:12:45.782Z,101327.84
2022-12-25T22:16:07.631Z,101309.59
2022-12-25T22:19:28.393Z,101315.44
2022-12-25T22:22:32.127Z,101331.53
2022-12-25T22:25:34.639Z,101333.00
2022-12-25T22:28:37.477Z,101336.78
2022-12-25T22:31:46.385Z,101332.09
2022-12-25T22:34:49.861Z,101318.03
2022-12-25T22:37:54.007Z,101316.00
2022-12-25T22:40:57.208Z,101325.91
2022-12-25T22:44:17.056Z,101320.78
2022-12-25T22:47:20.859Z,101322.03
2022-12-25T22:50:23.370Z,101323.78
2022-12-25T22:53:26.367Z,101306.72
2022-12-25T22:56:29.043Z,101293.94
2022-12-25T22:59:33.186Z,101304.22
2022-12-25T23:02:35.991Z,101297.69
2022-12-25T23:05:38.838Z,101294.28
2022-12-25T23:08:41.532Z,101311.31
2022-12-25T23:11:44.615Z,101318.38
2022-12-25T23:14:47.034Z,101317.59
2022-12-25T23:18:08.478Z,101316.78
2022-12-25T23:21:34.202Z,101304.78
2022-12-25T23:24:56.377Z,101317.38
2022-12-25T23:27:58.837Z,101311.16
2022-12-25T23:31:01.875Z,101310.03
2022-12-25T23:34:06.062Z,101304.78
2022-12-25T23:37:10.823Z,101302.38
2022-12-25T23:40:13.207Z,101297.81
2022-12-25T23:43:16.008Z,101298.72
2022-12-25T23:46:18.621Z,101285.94
2022-12-25T23:49:23.137Z,101292.66
2022-12-25T23:52:25.853Z,101294.63
2022-12-25T23:55:28.505Z,101290.03
2022-12-25T23:58:30.932Z,101282.94
